Time;durP1;ratioP1;P1;durP2;ratioP2;P2;SDS_P1;SDS_P2;PMS_P1;PMS_P2;Temp;Humidity;BMP_temperature;BMP_pressure;BME280_temperature;BME280_humidity;BME280_pressure;Samples;Min_cycle;Max_cycle;Signal;HPM_P1;HPM_P2
2023/10/07 00:02:14;;;;;;;1236.53;609.43;;;17.50;99.90;;;;;;5056195;28;20044;-83
2023/10/07 00:04:41;;;;;;;1237.40;610.43;;;17.50;99.90;;;;;;5055762;28;20067;-83
2023/10/07 00:07:10;;;;;;;1238.53;611.23;;;17.40;99.90;;;;;;5049462;28;20054;-83
2023/10/07 00:09:43;;;;;;;1285.50;571.77;;;17.50;99.90;;;;;;5075022;28;20386;-83
2023/10/07 00:12:14;;;;;;;1285.73;581.43;;;17.50;99.90;;;;;;5056162;28;20097;-83
2023/10/07 00:14:41;;;;;;;1239.47;605.43;;;17.50;99.90;;;;;;5056156;28;20037;-83
2023/10/07 00:17:16;;;;;;;1240.23;611.87;;;17.50;99.90;;;;;;5084115;28;20131;-83
2023/10/07 00:19:45;;;;;;;1230.70;601.95;;;17.50;99.90;;;;;;5075451;28;20046;-83
2023/10/07 00:22:13;;;;;;;1276.93;583.60;;;17.50;99.90;;;;;;5085582;28;20045;-84
2023/10/07 00:24:43;;;;;;;1234.33;603.90;;;17.50;99.90;;;;;;5055639;28;20519;-83
2023/10/07 00:27:30;;;;;;;1224.93;600.77;;;17.50;99.90;;;;;;5083159;28;20074;-83
2023/10/07 00:30:00;;;;;;;1220.30;588.63;;;17.40;99.90;;;;;;5056143;28;20045;-83
2023/10/07 00:32:28;;;;;;;1256.40;567.17;;;17.40;99.90;;;;;;5073958;28;20051;-83
2023/10/07 00:34:55;;;;;;;1209.00;591.63;;;17.40;99.90;;;;;;5055867;28;20054;-83
2023/10/07 00:37:24;;;;;;;1237.83;569.77;;;17.40;99.90;;;;;;5059340;28;20044;-83
2023/10/07 00:39:51;;;;;;;1237.37;579.30;;;17.40;99.90;;;;;;5075185;28;20048;-83
2023/10/07 00:42:18;;;;;;;1240.77;573.60;;;17.40;99.90;;;;;;5067057;28;20084;-83
2023/10/07 00:44:47;;;;;;;1233.43;558.57;;;17.30;99.90;;;;;;5090922;28;20079;-84
2023/10/07 00:47:13;;;;;;;1193.40;569.90;;;17.30;99.90;;;;;;5093605;28;20442;-83
2023/10/07 00:49:41;;;;;;;1241.53;569.60;;;17.30;99.90;;;;;;5085347;28;20037;-84
2023/10/07 00:52:22;;;;;;;1182.33;575.50;;;17.20;99.90;;;;;;5039631;28;20410;-83
2023/10/07 00:57:23;;;;;;;4.82;1.25;;;17.20;99.90;;;;;;5075117;28;20052;-83
2023/10/07 00:59:51;;;;;;;2.13;0.90;;;17.20;99.90;;;;;;5073574;28;20100;-83
2023/10/07 01:02:33;;;;;;;4.57;2.00;;;17.20;99.90;;;;;;5078821;28;20048;-83
2023/10/07 01:08:45;;;;;;;4.00;1.02;;;17.20;99.90;;;;;;5099267;28;20038;-82
2023/10/07 01:13:48;;;;;;;706.65;638.03;;;17.20;99.90;;;;;;5103333;28;20063;-83
2023/10/07 01:16:24;;;;;;;721.55;654.70;;;17.20;99.90;;;;;;5107739;28;20048;-83
2023/10/07 01:18:50;;;;;;;558.95;440.30;;;17.10;99.90;;;;;;5089179;28;20032;-83
2023/10/07 01:21:31;;;;;;;911.38;672.15;;;17.10;99.90;;;;;;5087659;28;20047;-83
2023/10/07 01:23:57;;;;;;;899.42;503.70;;;17.10;99.90;;;;;;5107906;28;20068;-84
2023/10/07 01:26:23;;;;;;;920.15;673.63;;;17.10;99.90;;;;;;5108026;28;20089;-83
2023/10/07 01:28:56;;;;;;;872.30;680.85;;;17.10;99.90;;;;;;5092051;28;20477;-84
2023/10/07 01:31:23;;;;;;;906.95;685.38;;;17.10;99.90;;;;;;5091818;28;20037;-84
2023/10/07 01:33:48;;;;;;;912.97;674.70;;;17.10;99.90;;;;;;5067883;28;20046;-84
2023/10/07 01:36:24;;;;;;;955.15;671.15;;;17.10;99.90;;;;;;5099791;28;20075;-84
2023/10/07 01:38:54;;;;;;;731.70;475.95;;;17.10;99.90;;;;;;5100981;28;20036;-84
2023/10/07 01:41:22;;;;;;;829.60;666.63;;;17.10;99.90;;;;;;5077172;28;20052;-83
2023/10/07 01:44:00;;;;;;;692.78;460.17;;;17.10;99.90;;;;;;5075500;28;20078;-83
2023/10/07 01:46:27;;;;;;;754.92;662.03;;;17.10;99.90;;;;;;5075672;28;20378;-84
2023/10/07 01:48:57;;;;;;;638.88;455.40;;;17.10;99.90;;;;;;5073886;28;20040;-83
2023/10/07 01:51:30;;;;;;;855.33;660.38;;;17.10;99.90;;;;;;5073317;28;20378;-83
2023/10/07 01:53:56;;;;;;;911.15;678.90;;;17.10;99.90;;;;;;5055129;28;20049;-83
2023/10/07 01:56:26;;;;;;;807.47;483.70;;;17.10;99.90;;;;;;5072785;28;20047;-83
2023/10/07 01:58:54;;;;;;;890.28;503.20;;;17.10;99.90;;;;;;5056743;28;20044;-83
2023/10/07 02:01:21;;;;;;;1014.03;678.58;;;17.10;99.90;;;;;;5059437;28;20098;-83
2023/10/07 02:03:49;;;;;;;770.38;484.55;;;17.10;99.90;;;;;;5059408;28;20492;-83
2023/10/07 02:06:18;;;;;;;925.25;683.38;;;17.20;99.90;;;;;;5078435;28;20045;-83
2023/10/07 02:08:45;;;;;;;891.22;508.92;;;17.20;99.90;;;;;;5076233;28;20052;-84
2023/10/07 02:11:11;;;;;;;875.22;502.85;;;17.20;99.90;;;;;;5086501;28;20048;-83
2023/10/07 02:13:37;;;;;;;898.97;507.55;;;17.20;99.90;;;;;;5071196;28;20037;-83
2023/10/07 02:16:06;;;;;;;865.25;496.70;;;17.20;99.90;;;;;;5057898;28;20045;-83
2023/10/07 02:18:35;;;;;;;1012.70;694.47;;;17.20;99.90;;;;;;5075815;28;20105;-83
2023/10/07 02:21:07;;;;;;;1029.75;694.83;;;17.20;99.90;;;;;;5075928;28;20044;-84
2023/10/07 02:23:40;;;;;;;1026.15;685.03;;;17.20;99.90;;;;;;5059051;28;20056;-83
2023/10/07 02:26:19;;;;;;;1026.68;694.10;;;17.20;99.90;;;;;;5075786;28;20044;-84
2023/10/07 02:28:52;;;;;;;903.90;506.75;;;17.30;99.90;;;;;;5057624;28;20043;-83
2023/10/07 02:31:20;;;;;;;886.15;508.30;;;17.20;99.90;;;;;;5058828;28;20048;-83
2023/10/07 02:33:53;;;;;;;1018.50;693.85;;;17.20;99.90;;;;;;5091865;28;20036;-83
2023/10/07 02:39:45;;;;;;;867.78;497.38;;;17.30;99.90;;;;;;5095556;28;20051;-83
2023/10/07 02:41:51;;;;;;;880.90;500.58;;;17.30;99.90;;;;;;5074837;28;20056;-83
2023/10/07 02:44:27;;;;;;;1021.42;677.75;;;17.30;99.90;;;;;;5095487;28;20066;-83
2023/10/07 02:46:56;;;;;;;892.90;503.20;;;17.30;99.90;;;;;;5077588;28;20569;-83
2023/10/07 02:49:25;;;;;;;908.58;508.85;;;17.30;99.90;;;;;;5077196;28;20051;-83
2023/10/07 02:51:57;;;;;;;1054.47;677.25;;;17.30;99.90;;;;;;5095511;28;20071;-83
2023/10/07 02:54:32;;;;;;;1031.63;687.15;;;17.30;99.90;;;;;;5077024;28;20044;-83
2023/10/07 02:57:08;;;;;;;1022.80;679.35;;;17.30;99.90;;;;;;5095018;28;20059;-83
2023/10/07 02:59:36;;;;;;;1026.07;683.70;;;17.30;99.90;;;;;;5095325;28;20036;-82
2023/10/07 03:02:12;;;;;;;888.13;498.58;;;17.30;99.90;;;;;;5095290;28;20075;-83
2023/10/07 03:04:43;;;;;;;897.85;509.70;;;17.30;99.90;;;;;;5060421;28;20040;-83
2023/10/07 03:07:16;;;;;;;894.63;505.88;;;17.30;99.90;;;;;;5082486;28;20401;-83
2023/10/07 03:09:45;;;;;;;1031.47;689.78;;;17.30;99.90;;;;;;5074756;28;20087;-83
2023/10/07 03:12:14;;;;;;;1006.63;675.20;;;17.30;99.90;;;;;;5076580;28;20488;-83
2023/10/07 03:14:43;;;;;;;880.05;502.48;;;17.30;99.90;;;;;;5095070;28;20040;-83
2023/10/07 03:17:18;;;;;;;899.67;514.60;;;17.30;99.90;;;;;;5094811;28;20052;-83
2023/10/07 03:22:43;;;;;;;878.83;505.45;;;17.20;99.90;;;;;;5012485;28;20061;-83
2023/10/07 03:25:16;;;;;;;999.88;674.75;;;17.30;99.90;;;;;;5012840;28;20057;-83
2023/10/07 03:27:49;;;;;;;862.15;500.60;;;17.30;99.90;;;;;;4979856;28;20057;-83
2023/10/07 03:30:19;;;;;;;870.50;505.50;;;17.30;99.90;;;;;;5011960;28;20038;-83
2023/10/07 03:32:54;;;;;;;872.42;501.70;;;17.30;99.90;;;;;;4996107;28;20095;-83
2023/10/07 03:35:36;;;;;;;1010.05;685.53;;;17.30;99.90;;;;;;5012632;28;20124;-83
2023/10/07 03:38:08;;;;;;;1047.15;688.05;;;17.30;99.90;;;;;;4990309;28;20491;-83
2023/10/07 03:40:48;;;;;;;1056.70;667.20;;;17.30;99.90;;;;;;4991159;28;20057;-83
2023/10/07 03:43:16;;;;;;;1000.05;683.80;;;17.30;99.90;;;;;;4992950;28;20069;-83
2023/10/07 03:45:42;;;;;;;859.33;499.35;;;17.30;99.90;;;;;;5004974;28;20085;-83
2023/10/07 03:48:22;;;;;;;864.15;503.17;;;17.30;99.90;;;;;;5012520;28;20078;-83
2023/10/07 03:50:55;;;;;;;1006.08;676.45;;;17.30;99.90;;;;;;5012384;28;20050;-82
2023/10/07 03:53:23;;;;;;;867.38;502.92;;;17.30;99.90;;;;;;5012323;28;20414;-83
2023/10/07 03:55:49;;;;;;;886.15;496.02;;;17.30;99.90;;;;;;5012131;28;20046;-84
2023/10/07 03:58:20;;;;;;;1032.32;694.83;;;17.30;99.90;;;;;;5010569;28;20042;-83
2023/10/07 04:00:46;;;;;;;895.05;516.38;;;17.30;99.90;;;;;;5053712;28;20405;-83
2023/10/07 04:03:12;;;;;;;920.15;506.15;;;17.30;99.90;;;;;;5053863;28;20045;-83
2023/10/07 04:05:42;;;;;;;1037.60;673.58;;;17.40;99.90;;;;;;5036017;28;20056;-83
2023/10/07 04:08:08;;;;;;;924.65;511.13;;;17.40;99.90;;;;;;5053868;28;20052;-83
2023/10/07 04:10:37;;;;;;;926.70;513.13;;;17.30;99.90;;;;;;5053824;28;20071;-83
2023/10/07 04:13:08;;;;;;;924.08;512.28;;;17.40;99.90;;;;;;5063244;28;20029;-83
2023/10/07 04:15:44;;;;;;;926.83;508.90;;;17.30;99.90;;;;;;5073621;28;20044;-83
2023/10/07 04:18:16;;;;;;;1060.05;689.83;;;17.30;99.90;;;;;;5065830;28;20369;-83
2023/10/07 04:20:57;;;;;;;944.38;515.08;;;17.40;99.90;;;;;;5035355;28;20036;-83
2023/10/07 04:23:25;;;;;;;1071.47;687.20;;;17.40;99.90;;;;;;5061057;28;20485;-83
2023/10/07 04:25:55;;;;;;;1023.47;685.90;;;17.40;99.90;;;;;;5073398;28;20181;-83
2023/10/07 04:28:22;;;;;;;876.03;502.42;;;17.30;99.90;;;;;;5074731;28;20047;-84
2023/10/07 04:30:53;;;;;;;881.40;504.20;;;17.30;99.90;;;;;;5093387;28;20446;-84
2023/10/07 04:33:25;;;;;;;874.33;498.60;;;17.40;99.90;;;;;;5092257;28;20047;-83
2023/10/07 04:36:00;;;;;;;883.97;502.50;;;17.30;99.90;;;;;;5093419;28;20044;-83
2023/10/07 04:46:23;;;;;;;868.78;497.42;;;17.30;99.90;;;;;;5093346;28;20052;-83
2023/10/07 04:48:54;;;;;;;895.45;511.08;;;17.30;99.90;;;;;;5072019;28;20503;-83
2023/10/07 04:53:59;;;;;;;938.95;507.05;;;17.30;99.90;;;;;;5074797;28;20262;-83
2023/10/07 04:56:26;;;;;;;933.63;512.03;;;17.30;99.90;;;;;;5071011;28;20060;-83
2023/10/07 04:58:53;;;;;;;1061.05;679.35;;;17.30;99.90;;;;;;5090861;28;20463;-82
2023/10/07 05:01:30;;;;;;;1071.05;700.28;;;17.30;99.90;;;;;;5073561;28;20040;-82
2023/10/07 05:04:09;;;;;;;1091.47;695.38;;;17.30;99.90;;;;;;5058515;28;20047;-83
2023/10/07 05:06:37;;;;;;;955.63;506.95;;;17.30;99.90;;;;;;5075198;28;20052;-82
2023/10/07 05:09:09;;;;;;;1072.00;672.47;;;17.30;99.90;;;;;;5092823;28;20396;-83
2023/10/07 05:11:38;;;;;;;1087.80;684.17;;;17.30;99.90;;;;;;5073083;28;20400;-83
2023/10/07 05:14:07;;;;;;;1114.78;690.13;;;17.30;99.90;;;;;;5073098;28;20046;-83
2023/10/07 05:16:34;;;;;;;1061.57;702.15;;;17.30;99.90;;;;;;5092946;28;20127;-83
2023/10/07 05:19:00;;;;;;;1037.95;688.58;;;17.30;99.90;;;;;;5092863;28;20478;-83
2023/10/07 05:21:27;;;;;;;916.80;510.92;;;17.30;99.90;;;;;;5089904;28;20131;-83
2023/10/07 05:23:53;;;;;;;1049.35;678.03;;;17.30;99.90;;;;;;5069686;28;20092;-84
2023/10/07 05:26:19;;;;;;;937.22;516.50;;;17.30;99.90;;;;;;5053989;28;20052;-83
2023/10/07 05:28:47;;;;;;;945.20;510.55;;;17.30;99.90;;;;;;5037021;28;20041;-83
2023/10/07 05:31:17;;;;;;;947.30;513.10;;;17.30;99.90;;;;;;5055242;28;20044;-82
2023/10/07 05:33:43;;;;;;;1077.10;682.90;;;17.30;99.90;;;;;;5054437;28;20088;-83
2023/10/07 05:36:13;;;;;;;1070.38;676.38;;;17.30;99.90;;;;;;5057327;28;20048;-83
2023/10/07 05:38:40;;;;;;;949.53;511.08;;;17.30;99.90;;;;;;5071252;28;20038;-82
2023/10/07 05:41:06;;;;;;;957.60;517.28;;;17.30;99.90;;;;;;5095517;28;20050;-83
2023/10/07 05:43:33;;;;;;;1079.85;674.78;;;17.30;99.90;;;;;;5093527;28;20048;-82
2023/10/07 05:45:59;;;;;;;1096.40;703.90;;;17.30;99.90;;;;;;5058818;28;20036;-83
2023/10/07 05:48:25;;;;;;;1072.85;679.85;;;17.30;99.90;;;;;;5076922;28;20036;-83
2023/10/07 05:50:57;;;;;;;952.78;513.00;;;17.30;99.90;;;;;;5094309;28;20507;-83
2023/10/07 05:53:23;;;;;;;1077.38;675.28;;;17.30;99.90;;;;;;5086002;28;20112;-82
2023/10/07 05:55:49;;;;;;;1077.20;686.25;;;17.30;99.90;;;;;;5074685;28;20124;-83
2023/10/07 05:58:15;;;;;;;1085.47;696.20;;;17.30;99.90;;;;;;5056533;28;20081;-83
2023/10/07 06:00:41;;;;;;;1078.70;698.17;;;17.20;99.90;;;;;;5056874;28;20457;-83
2023/10/07 06:03:12;;;;;;;1060.35;694.85;;;17.20;99.90;;;;;;5075916;28;20124;-83
2023/10/07 06:05:38;;;;;;;1078.25;690.88;;;17.20;99.90;;;;;;5078819;28;20076;-83
2023/10/07 06:08:05;;;;;;;1088.32;698.28;;;17.20;99.90;;;;;;5063271;28;20040;-83
2023/10/07 06:10:33;;;;;;;953.88;515.45;;;17.20;99.90;;;;;;5057086;28;20481;-84
2023/10/07 06:12:59;;;;;;;965.03;511.63;;;17.20;99.90;;;;;;5074811;28;20098;-84
2023/10/07 06:15:25;;;;;;;966.00;517.10;;;17.20;99.90;;;;;;5053230;28;20541;-83
2023/10/07 06:17:51;;;;;;;1096.13;711.67;;;17.20;99.90;;;;;;5076462;28;20044;-83
2023/10/07 06:20:26;;;;;;;979.90;523.78;;;17.40;99.90;;;;;;5093893;28;20039;-83
2023/10/07 06:22:58;;;;;;;1108.43;682.97;;;17.10;99.90;;;;;;5036082;28;1118216;-83
2023/10/07 06:25:31;;;;;;;1101.63;679.10;;;17.10;99.90;;;;;;5072863;28;20044;-82
2023/10/07 06:27:59;;;;;;;962.45;510.33;;;17.10;99.90;;;;;;5095901;28;20368;-83
2023/10/07 06:30:26;;;;;;;1083.50;692.35;;;17.10;99.90;;;;;;5095093;28;20075;-84
2023/10/07 06:32:55;;;;;;;1090.78;695.83;;;17.10;99.90;;;;;;5095652;28;20044;-83
2023/10/07 06:35:25;;;;;;;958.97;512.50;;;17.10;99.90;;;;;;5092568;28;20480;-81
2023/10/07 06:37:57;;;;;;;985.60;526.30;;;17.10;99.90;;;;;;5075911;28;20094;-85
2023/10/07 06:40:25;;;;;;;1119.03;678.17;;;17.10;99.90;;;;;;5095472;28;20044;-82
2023/10/07 06:42:52;;;;;;;1014.67;530.53;;;17.10;99.90;;;;;;5065893;28;20072;-83
2023/10/07 06:45:18;;;;;;;1006.83;528.90;;;17.10;99.90;;;;;;5074212;28;20041;-84
2023/10/07 06:47:46;;;;;;;1143.22;690.10;;;17.10;99.90;;;;;;5058586;28;20048;-83
2023/10/07 06:50:27;;;;;;;1140.28;692.80;;;17.10;99.90;;;;;;5075368;28;20048;-83
2023/10/07 06:52:55;;;;;;;1000.67;524.75;;;17.10;99.90;;;;;;5075231;28;20044;-83
2023/10/07 06:55:22;;;;;;;994.42;521.08;;;17.10;99.90;;;;;;5075218;28;20062;-84
2023/10/07 06:57:48;;;;;;;1117.78;680.97;;;17.10;99.90;;;;;;5069109;28;20454;-82
2023/10/07 07:00:27;;;;;;;1002.35;525.00;;;17.00;99.90;;;;;;5076820;28;20048;-84
2023/10/07 07:02:59;;;;;;;1150.40;695.53;;;17.00;99.90;;;;;;5094003;28;20074;-83
2023/10/07 07:05:26;;;;;;;1035.43;530.60;;;17.10;99.90;;;;;;5056919;28;20568;-82
2023/10/07 07:07:55;;;;;;;1163.05;688.65;;;17.10;99.90;;;;;;5058001;28;20068;-83
2023/10/07 07:10:27;;;;;;;1026.00;522.72;;;17.10;99.90;;;;;;5074901;28;20040;-82
2023/10/07 07:12:58;;;;;;;1025.88;523.47;;;17.10;99.90;;;;;;5068623;28;20036;-83
2023/10/07 07:15:27;;;;;;;1150.93;682.15;;;17.10;99.90;;;;;;5095384;28;20381;-83
2023/10/07 07:18:07;;;;;;;1135.88;677.45;;;17.10;99.90;;;;;;5092237;28;20119;-83
2023/10/07 07:20:48;;;;;;;1016.08;525.65;;;17.10;99.90;;;;;;5079440;28;20083;-82
2023/10/07 07:23:21;;;;;;;1146.85;693.40;;;17.10;99.90;;;;;;5087917;28;20092;-82
2023/10/07 07:25:59;;;;;;;1006.90;522.67;;;17.20;99.90;;;;;;5094558;28;20138;-83
2023/10/07 07:28:27;;;;;;;1134.65;679.05;;;17.20;99.90;;;;;;5062447;28;20454;-82
2023/10/07 07:30:57;;;;;;;1010.13;529.47;;;17.10;99.90;;;;;;5074343;28;20512;-82
2023/10/07 07:33:29;;;;;;;1162.50;695.30;;;17.20;99.90;;;;;;5079633;28;20065;-84
2023/10/07 07:35:57;;;;;;;1047.53;536.45;;;17.10;99.90;;;;;;5076345;28;20378;-82
2023/10/07 07:38:26;;;;;;;1179.85;689.42;;;17.20;99.90;;;;;;5076725;28;20067;-83
2023/10/07 07:41:06;;;;;;;1068.35;536.58;;;17.20;99.90;;;;;;5062041;28;20115;-83
2023/10/07 07:43:34;;;;;;;1054.88;534.33;;;17.20;99.90;;;;;;5074248;28;20036;-83
2023/10/07 07:48:43;;;;;;;1180.57;698.90;;;17.30;99.90;;;;;;5074033;28;20091;-83
2023/10/07 07:51:11;;;;;;;1177.72;704.00;;;17.30;99.90;;;;;;5069660;28;20460;-84
2023/10/07 07:53:39;;;;;;;1041.50;528.92;;;17.30;99.90;;;;;;5075654;28;20056;-83
2023/10/07 07:56:08;;;;;;;1046.85;535.47;;;17.40;99.90;;;;;;5093501;28;20480;-82
2023/10/07 07:58:37;;;;;;;1186.75;704.80;;;17.40;99.90;;;;;;5093799;28;20055;-87
2023/10/07 08:01:05;;;;;;;1052.47;536.17;;;17.40;99.90;;;;;;5074467;28;20043;-83
2023/10/07 08:03:35;;;;;;;1046.63;528.17;;;17.50;99.90;;;;;;5073706;28;20037;-82
2023/10/07 08:06:06;;;;;;;1044.95;534.97;;;17.50;99.90;;;;;;5072649;28;20075;-82
2023/10/07 08:08:36;;;;;;;1049.55;534.72;;;17.50;99.90;;;;;;5069694;28;20049;-82
2023/10/07 08:11:02;;;;;;;1192.55;698.22;;;17.60;99.90;;;;;;5076097;28;20397;-82
2023/10/07 08:13:28;;;;;;;1194.05;698.65;;;17.50;99.90;;;;;;5093745;28;20036;-82
2023/10/07 08:15:55;;;;;;;1055.32;533.65;;;17.60;99.90;;;;;;5094225;28;20395;-83
2023/10/07 08:18:40;;;;;;;1203.78;697.65;;;17.60;99.90;;;;;;5075812;28;20131;-83
2023/10/07 08:21:13;;;;;;;1070.68;534.15;;;17.60;99.90;;;;;;5094364;28;20044;-83
2023/10/07 08:23:46;;;;;;;1208.47;678.78;;;17.60;99.90;;;;;;5070840;28;20523;-83
2023/10/07 08:26:12;;;;;;;1080.25;542.67;;;17.60;99.90;;;;;;5055701;28;20053;-83
2023/10/07 08:28:43;;;;;;;1223.32;695.35;;;17.60;99.90;;;;;;5055687;28;20042;-83
2023/10/07 08:34:09;;;;;;;1086.75;543.17;;;17.70;99.90;;;;;;5086422;28;20505;-84
2023/10/07 08:36:43;;;;;;;1224.72;711.95;;;17.70;99.90;;;;;;5065801;28;20044;-85
2023/10/07 08:39:09;;;;;;;1079.50;543.55;;;17.80;99.90;;;;;;5075644;28;20052;-84
2023/10/07 08:41:47;;;;;;;1071.15;540.75;;;17.80;99.90;;;;;;5075515;28;20043;-82
2023/10/07 08:44:14;;;;;;;1200.55;704.08;;;17.80;99.90;;;;;;5083917;28;20079;-85
2023/10/07 08:46:52;;;;;;;1071.38;541.25;;;17.90;99.90;;;;;;5072557;28;20048;-84
2023/10/07 08:49:26;;;;;;;1057.35;544.60;;;17.90;99.90;;;;;;5072436;28;20481;-84
2023/10/07 08:51:54;;;;;;;1047.68;539.00;;;18.00;99.90;;;;;;5072655;28;20104;-83
2023/10/07 08:54:26;;;;;;;1044.10;544.13;;;18.00;99.90;;;;;;5053187;28;20047;-82
2023/10/07 08:56:57;;;;;;;1190.85;712.05;;;18.10;99.90;;;;;;5072833;28;20059;-83
2023/10/07 08:59:25;;;;;;;1178.40;697.60;;;18.00;99.90;;;;;;5080876;28;20043;-83
2023/10/07 09:01:57;;;;;;;1038.40;542.20;;;18.00;99.90;;;;;;5093347;28;20044;-83
2023/10/07 09:04:31;;;;;;;1138.18;710.65;;;18.10;99.90;;;;;;5071028;28;20558;-82
2023/10/07 09:06:58;;;;;;;1192.03;866.80;;;18.10;99.90;;;;;;5070457;28;20044;-83
2023/10/07 09:09:35;;;;;;;972.80;526.67;;;18.10;99.90;;;;;;5058390;28;20084;-83
2023/10/07 09:12:03;;;;;;;964.65;535.35;;;18.10;99.90;;;;;;5074648;28;20044;-83
2023/10/07 09:14:30;;;;;;;946.78;520.80;;;18.10;99.90;;;;;;5092470;28;20449;-83
2023/10/07 09:16:56;;;;;;;952.58;526.05;;;18.10;99.90;;;;;;5072742;28;20071;-83
2023/10/07 09:19:23;;;;;;;926.00;515.08;;;18.20;99.90;;;;;;5056996;28;20079;-83
2023/10/07 09:21:57;;;;;;;925.40;525.63;;;18.20;99.90;;;;;;5074718;28;20052;-84
2023/10/07 09:24:26;;;;;;;1053.97;693.22;;;18.20;99.90;;;;;;5092889;28;20052;-85
2023/10/07 09:26:59;;;;;;;909.47;519.20;;;18.20;99.90;;;;;;5055381;28;20044;-83
2023/10/07 09:29:26;;;;;;;1043.97;708.20;;;18.20;99.90;;;;;;5091028;28;20492;-84
2023/10/07 09:32:04;;;;;;;902.60;511.73;;;18.20;99.90;;;;;;5085436;28;20370;-82
2023/10/07 09:34:41;;;;;;;1060.90;712.47;;;18.20;99.90;;;;;;5055481;28;20041;-83
2023/10/07 09:37:20;;;;;;;919.95;522.63;;;18.20;99.90;;;;;;5074185;28;20504;-83
2023/10/07 09:40:03;;;;;;;1066.07;715.40;;;18.20;99.90;;;;;;5074701;28;20105;-83
2023/10/07 09:42:36;;;;;;;1053.38;710.47;;;18.20;99.90;;;;;;5093142;28;20396;-85
2023/10/07 09:47:44;;;;;;;906.22;517.15;;;18.30;99.90;;;;;;5093137;28;20097;-82
2023/10/07 09:50:28;;;;;;;928.55;517.90;;;18.20;99.90;;;;;;5074791;28;20507;-83
2023/10/07 09:53:21;;;;;;;1068.43;715.63;;;18.30;99.90;;;;;;5074982;28;20127;-83
2023/10/07 09:56:11;;;;;;;923.05;521.35;;;18.30;99.90;;;;;;5091293;28;20088;-82
2023/10/07 09:58:47;;;;;;;917.97;521.70;;;18.30;99.90;;;;;;5091906;28;20094;-82
2023/10/07 10:01:29;;;;;;;917.42;521.25;;;18.30;99.90;;;;;;5092955;28;20051;-82
2023/10/07 10:04:11;;;;;;;925.40;521.65;;;18.30;99.90;;;;;;5073296;28;20040;-82
2023/10/07 10:07:00;;;;;;;928.15;513.88;;;18.40;99.90;;;;;;5072411;28;20048;-82
2023/10/07 10:09:42;;;;;;;1100.53;712.05;;;18.40;99.90;;;;;;5054372;28;20110;-82
2023/10/07 10:12:27;;;;;;;1078.18;698.25;;;18.40;99.90;;;;;;5072597;28;20052;-82
2023/10/07 10:14:56;;;;;;;944.40;526.27;;;18.40;99.90;;;;;;5072590;28;20408;-82
2023/10/07 10:17:48;;;;;;;1116.13;701.40;;;18.40;99.90;;;;;;5054202;28;20400;-81
2023/10/07 10:20:18;;;;;;;998.40;542.40;;;18.50;99.90;;;;;;5072529;28;20443;-81
2023/10/07 10:22:51;;;;;;;1154.82;714.45;;;18.50;99.90;;;;;;5085713;28;20047;-83
2023/10/07 10:25:36;;;;;;;1034.25;554.17;;;18.60;99.90;;;;;;5078542;28;20735;-82
2023/10/07 10:28:03;;;;;;;1150.00;704.63;;;18.60;99.90;;;;;;5095066;28;20237;-82
2023/10/07 10:30:30;;;;;;;1200.20;709.28;;;18.70;99.90;;;;;;5078025;28;20059;-86
2023/10/07 10:33:00;;;;;;;1073.18;564.95;;;18.70;99.90;;;;;;5092960;28;20045;-85
2023/10/07 10:35:32;;;;;;;1103.43;570.75;;;18.70;99.90;;;;;;5058008;28;20131;-86
2023/10/07 10:37:59;;;;;;;1245.25;719.88;;;18.80;99.90;;;;;;5075428;28;20049;-84
2023/10/07 10:40:31;;;;;;;1111.47;580.42;;;18.90;99.90;;;;;;5057419;28;20044;-84
2023/10/07 10:42:57;;;;;;;1250.45;730.90;;;18.90;99.90;;;;;;5080763;28;20048;-84
2023/10/07 10:45:25;;;;;;;1253.32;713.05;;;19.00;99.90;;;;;;5075185;28;20059;-83
2023/10/07 10:47:52;;;;;;;1276.25;731.95;;;19.00;99.90;;;;;;5075133;28;20040;-84
2023/10/07 10:50:28;;;;;;;1296.22;730.08;;;19.10;99.90;;;;;;5074141;28;20366;-84
2023/10/07 10:52:59;;;;;;;1306.72;723.88;;;19.30;99.90;;;;;;5057335;28;20554;-85
2023/10/07 10:55:25;;;;;;;1207.70;590.33;;;19.40;99.90;;;;;;5069486;28;20048;-86
2023/10/07 10:57:52;;;;;;;1342.95;726.53;;;19.50;99.90;;;;;;5076149;28;20456;-86
2023/10/07 11:00:28;;;;;;;1246.70;592.92;;;19.60;99.90;;;;;;5095372;28;20090;-86
2023/10/07 11:02:55;;;;;;;1253.30;595.58;;;19.50;99.90;;;;;;5078946;28;20139;-85
2023/10/07 11:05:21;;;;;;;1245.45;593.92;;;19.50;99.90;;;;;;5057046;28;20047;-87
2023/10/07 11:07:50;;;;;;;1240.90;599.45;;;19.50;99.90;;;;;;5083149;28;20059;-86
2023/10/07 11:10:20;;;;;;;1332.13;718.40;;;19.50;99.90;;;;;;5060030;28;20040;-85
2023/10/07 11:12:52;;;;;;;1336.95;728.47;;;19.60;99.90;;;;;;5074908;28;20048;-86
2023/10/07 11:15:27;;;;;;;1332.55;726.20;;;19.60;99.90;;;;;;5057066;28;20465;-86
2023/10/07 11:18:12;;;;;;;1327.03;730.13;;;19.50;99.90;;;;;;5061541;28;20131;-87
2023/10/07 11:20:40;;;;;;;1325.35;705.75;;;19.40;99.90;;;;;;5076798;28;20090;-86
2023/10/07 11:23:08;;;;;;;1334.43;720.05;;;19.40;99.90;;;;;;5069371;28;20501;-86
2023/10/07 11:25:35;;;;;;;1335.85;717.75;;;19.30;99.90;;;;;;5081367;28;20045;-83
2023/10/07 11:28:11;;;;;;;1301.22;611.33;;;19.30;99.90;;;;;;5074383;28;20052;-86
2023/10/07 11:30:46;;;;;;;1334.65;709.30;;;19.20;99.90;;;;;;5074351;28;20049;-86
2023/10/07 11:33:16;;;;;;;1328.97;708.90;;;19.10;99.90;;;;;;5073778;28;20029;-85
2023/10/07 11:35:55;;;;;;;1313.43;607.70;;;19.20;99.90;;;;;;5074302;28;20106;-83
2023/10/07 11:38:21;;;;;;;1329.85;713.67;;;19.10;99.90;;;;;;5069020;28;20410;-83
2023/10/07 11:40:46;;;;;;;1309.78;604.15;;;19.10;99.90;;;;;;5091793;28;20036;-83
2023/10/07 11:43:12;;;;;;;1327.22;710.88;;;19.10;99.90;;;;;;5056290;28;20490;-82
2023/10/07 11:45:39;;;;;;;1311.57;604.95;;;19.00;99.90;;;;;;5074166;28;20040;-83
2023/10/07 11:48:08;;;;;;;1311.25;600.05;;;19.10;99.90;;;;;;5056192;28;20040;-83
2023/10/07 11:50:37;;;;;;;1322.28;701.03;;;19.10;99.90;;;;;;5058568;28;20052;-84
2023/10/07 11:53:07;;;;;;;1336.23;705.07;;;19.10;99.90;;;;;;5076320;28;20044;-82
2023/10/07 11:55:33;;;;;;;1332.55;607.08;;;19.20;99.90;;;;;;5094390;28;20040;-83
2023/10/07 11:57:59;;;;;;;1324.93;710.35;;;19.20;99.90;;;;;;5093726;28;20420;-83
2023/10/07 12:00:43;;;;;;;1325.82;710.70;;;19.10;99.90;;;;;;5092388;28;20406;-84
2023/10/07 12:03:08;;;;;;;1328.87;717.00;;;19.20;99.90;;;;;;5056074;28;20044;-82
2023/10/07 12:05:39;;;;;;;1354.37;616.87;;;19.10;99.90;;;;;;5056373;28;20044;-84
2023/10/07 12:08:04;;;;;;;1348.93;606.72;;;19.10;99.90;;;;;;5074036;28;20044;-82
2023/10/07 12:10:36;;;;;;;1330.70;719.17;;;19.00;99.90;;;;;;5081501;28;20253;-82
2023/10/07 12:13:03;;;;;;;1326.27;705.03;;;19.10;99.90;;;;;;5076178;28;20044;-83
2023/10/07 12:15:29;;;;;;;1360.65;615.50;;;19.00;99.90;;;;;;5093819;28;20047;-83
2023/10/07 12:17:55;;;;;;;1327.17;715.80;;;19.00;99.90;;;;;;5093914;28;20043;-86
2023/10/07 12:20:22;;;;;;;1331.90;716.17;;;18.80;99.90;;;;;;5064499;28;20043;-84
2023/10/07 12:22:48;;;;;;;1369.47;619.77;;;19.00;99.90;;;;;;5044264;28;20110;-83
2023/10/07 12:25:19;;;;;;;1373.93;623.17;;;19.00;99.90;;;;;;5054665;28;20402;-83
2023/10/07 12:27:50;;;;;;;1366.53;607.77;;;19.00;99.90;;;;;;5090412;28;20481;-83
2023/10/07 12:30:23;;;;;;;1368.20;613.28;;;19.10;99.90;;;;;;5068550;28;20083;-82
2023/10/07 12:32:52;;;;;;;1330.80;705.83;;;19.10;99.90;;;;;;5073088;28;20051;-83
2023/10/07 12:35:19;;;;;;;1329.37;701.10;;;19.10;99.90;;;;;;5073708;28;20048;-83
2023/10/07 12:37:48;;;;;;;1367.53;611.33;;;19.20;99.90;;;;;;5038861;28;20123;-83
2023/10/07 12:40:17;;;;;;;1377.03;623.63;;;19.20;99.90;;;;;;5077325;28;20468;-81
2023/10/07 12:42:43;;;;;;;1337.57;721.07;;;19.20;99.90;;;;;;5075040;28;20446;-83
2023/10/07 12:45:10;;;;;;;1377.80;610.67;;;19.20;99.90;;;;;;5075400;28;20048;-82
2023/10/07 12:47:39;;;;;;;1381.90;616.53;;;19.20;99.90;;;;;;5075261;28;20052;-82
2023/10/07 12:50:20;;;;;;;1334.83;709.47;;;19.20;99.90;;;;;;5093011;28;20132;-82
2023/10/07 12:52:50;;;;;;;1383.70;606.37;;;19.10;99.90;;;;;;5075517;28;20457;-82
2023/10/07 12:55:17;;;;;;;1389.27;616.80;;;19.10;99.90;;;;;;5073417;28;20044;-82